Navaho — 9HNR6 — position and weather

sailwx.info

Track history (hours):
 
Tides and Currents Weather Stations Pressure Air Temp Water Temp Dewpoint Dewpoint Depression Visibility Wind Speed Wind Dir Waves Ship Positions

Navaho

Last reported at 2017-Sep-13 18:09 UTC. Time now 2017-Sep-19 17:17 UTC.
Position N 31°49' E 034°37'.

Length 140 m; draft 3.8 m.

Type: Cargo ship. MMSI: 248681000.

Date/timePositionNaut miles runAvg speedWind from/ knotsBaromVisibWave heightAir tempDewpointWater temp
2017-Sep-13 18:09N 31°49' E 034°37'0 0.0
2017-Sep-13 17:03N 31°49' E 034°37'0 0.0
2017-Sep-13 17:00N 31°49' E 034°37'0 0.0
2017-Sep-13 16:30N 31°49' E 034°37'0 0.0
2017-Sep-13 15:57N 31°49' E 034°37'0 0.0
2017-Sep-13 15:00N 31°49' E 034°37'0 0.0
2017-Sep-13 14:27N 31°49' E 034°37'0 0.0
2017-Sep-13 13:09N 31°49' E 034°37'0 0.0
2017-Sep-13 12:45N 31°49' E 034°37'0 0.0
2017-Sep-13 12:24N 31°49' E 034°37'0 0.0
2017-Sep-13 01:24N 31°49' E 034°37'0 0.0
2017-Sep-12 19:21N 31°49' E 034°37'0 0.0
2017-Sep-12 18:57N 31°49' E 034°37'0 0.0
2017-Sep-12 18:15N 31°49' E 034°37'0 0.0
2017-Sep-12 18:00N 31°49' E 034°37'0 0.0
2017-Sep-12 14:24N 31°49' E 034°37'0 0.0
2017-Sep-12 13:27N 31°49' E 034°37'0 0.0
2017-Sep-12 12:36N 31°49' E 034°37'0 0.0
2017-Sep-12 12:21N 31°49' E 034°37'0 0.0
2017-Sep-12 11:57N 31°49' E 034°37'0 0.0
2017-Sep-12 09:09N 31°49' E 034°37'0 0.0
2017-Sep-12 08:57N 31°49' E 034°37'0 0.0
2017-Sep-12 08:21N 31°49' E 034°37'0 0.0
2017-Sep-12 08:00N 31°49' E 034°37'0 0.0
2017-Sep-12 07:30N 31°49' E 034°37'0 0.0
2017-Sep-12 06:57N 31°49' E 034°37'0 0.0
2017-Sep-12 06:27N 31°49' E 034°37'0 0.0
2017-Sep-12 03:27N 31°49' E 034°37'0 0.0
2017-Sep-12 03:00N 31°49' E 034°37'0 0.0
2017-Sep-12 02:30N 31°49' E 034°37'  
2017-Sep-05 16:34N 35°02' E 031°31'13 7.0
2017-Sep-05 14:41N 35°09' E 031°17'3 6.9
2017-Sep-05 14:15N 35°11' E 031°14'3 7.0
2017-Sep-05 13:52N 35°12' E 031°11'10 7.2
2017-Sep-05 12:25N 35°17' E 030°60'14 7.3
2017-Sep-05 10:29N 35°24' E 030°45'3 7.2
2017-Sep-05 10:00N 35°26' E 030°41'4 7.4
2017-Sep-05 09:30N 35°28' E 030°37'4 7.5
2017-Sep-05 09:00N 35°30' E 030°33'4 7.4
2017-Sep-05 08:25N 35°32' E 030°29'3 7.5
2017-Sep-05 08:00N 35°33' E 030°25'4 7.6
2017-Sep-05 07:30N 35°36' E 030°21'  
Track history (hours):
 
Tides and Currents Weather Stations Pressure Air Temp Water Temp Dewpoint Dewpoint Depression Visibility Wind Speed Wind Dir Waves Ship Positions

Navaho

Last reported at 2017-Sep-13 18:09 UTC. Time now 2017-Sep-19 17:17 UTC.
Position N 31°49' E 034°37'.

Length 140 m; draft 3.8 m.

Type: Cargo ship. MMSI: 248681000.

Date/timePositionNaut miles runAvg speedWind from/ knotsBaromVisibWave heightAir tempDewpointWater temp
2017-Sep-13 18:09N 31°49' E 034°37'0 0.0
2017-Sep-13 17:03N 31°49' E 034°37'0 0.0
2017-Sep-13 17:00N 31°49' E 034°37'0 0.0
2017-Sep-13 16:30N 31°49' E 034°37'0 0.0
2017-Sep-13 15:57N 31°49' E 034°37'0 0.0
2017-Sep-13 15:00N 31°49' E 034°37'0 0.0
2017-Sep-13 14:27N 31°49' E 034°37'0 0.0
2017-Sep-13 13:09N 31°49' E 034°37'0 0.0
2017-Sep-13 12:45N 31°49' E 034°37'0 0.0
2017-Sep-13 12:24N 31°49' E 034°37'0 0.0
2017-Sep-13 01:24N 31°49' E 034°37'0 0.0
2017-Sep-12 19:21N 31°49' E 034°37'0 0.0
2017-Sep-12 18:57N 31°49' E 034°37'0 0.0
2017-Sep-12 18:15N 31°49' E 034°37'0 0.0
2017-Sep-12 18:00N 31°49' E 034°37'0 0.0
2017-Sep-12 14:24N 31°49' E 034°37'0 0.0
2017-Sep-12 13:27N 31°49' E 034°37'0 0.0
2017-Sep-12 12:36N 31°49' E 034°37'0 0.0
2017-Sep-12 12:21N 31°49' E 034°37'0 0.0
2017-Sep-12 11:57N 31°49' E 034°37'0 0.0
2017-Sep-12 09:09N 31°49' E 034°37'0 0.0
2017-Sep-12 08:57N 31°49' E 034°37'0 0.0
2017-Sep-12 08:21N 31°49' E 034°37'0 0.0
2017-Sep-12 08:00N 31°49' E 034°37'0 0.0
2017-Sep-12 07:30N 31°49' E 034°37'0 0.0
2017-Sep-12 06:57N 31°49' E 034°37'0 0.0
2017-Sep-12 06:27N 31°49' E 034°37'0 0.0
2017-Sep-12 03:27N 31°49' E 034°37'0 0.0
2017-Sep-12 03:00N 31°49' E 034°37'0 0.0
2017-Sep-12 02:30N 31°49' E 034°37'  
2017-Sep-05 16:34N 35°02' E 031°31'13 7.0
2017-Sep-05 14:41N 35°09' E 031°17'3 6.9
2017-Sep-05 14:15N 35°11' E 031°14'3 7.0
2017-Sep-05 13:52N 35°12' E 031°11'10 7.2
2017-Sep-05 12:25N 35°17' E 030°60'14 7.3
2017-Sep-05 10:29N 35°24' E 030°45'3 7.2
2017-Sep-05 10:00N 35°26' E 030°41'4 7.4
2017-Sep-05 09:30N 35°28' E 030°37'4 7.5
2017-Sep-05 09:00N 35°30' E 030°33'4 7.4
2017-Sep-05 08:25N 35°32' E 030°29'3 7.5
2017-Sep-05 08:00N 35°33' E 030°25'4 7.6
2017-Sep-05 07:30N 35°36' E 030°21'  

Dump ship's entire track history